createdAt,value
2024-04-24T00:02:05.925Z,6.20
2024-04-24T00:04:36.574Z,6.18
2024-04-24T00:07:07.186Z,6.10
2024-04-24T00:09:38.055Z,6.10
2024-04-24T00:12:09.003Z,6.10
2024-04-24T00:14:39.667Z,6.10
2024-04-24T00:17:11.401Z,6.00
2024-04-24T00:19:42.162Z,6.00
2024-04-24T00:22:12.781Z,6.00
2024-04-24T00:24:43.430Z,6.00
2024-04-24T00:27:14.336Z,5.90
2024-04-24T00:29:44.905Z,5.90
2024-04-24T00:32:15.825Z,5.90
2024-04-24T00:34:46.487Z,5.90
2024-04-24T00:37:17.232Z,5.90
2024-04-24T00:39:47.818Z,5.90
2024-04-24T00:42:22.374Z,5.88
2024-04-24T00:44:53.081Z,5.80
2024-04-24T00:47:24.083Z,5.80
2024-04-24T00:49:54.853Z,5.80
2024-04-24T00:52:26.047Z,5.80
2024-04-24T00:54:56.659Z,5.70
2024-04-24T00:57:27.479Z,5.70
2024-04-24T00:59:58.083Z,5.70
2024-04-24T01:02:29.527Z,5.70
2024-04-24T01:05:00.265Z,5.70
2024-04-24T01:07:30.940Z,5.70
2024-04-24T01:10:01.663Z,5.70
2024-04-24T01:12:32.613Z,5.70
2024-04-24T01:15:03.273Z,5.70
2024-04-24T01:17:34.648Z,5.64
2024-04-24T01:20:07.366Z,5.60
2024-04-24T01:22:52.455Z,5.60
2024-04-24T01:25:28.172Z,5.60
2024-04-24T01:27:58.804Z,5.60
2024-04-24T01:30:29.567Z,5.60
2024-04-24T01:33:00.412Z,5.60
2024-04-24T01:35:31.251Z,5.62
2024-04-24T01:38:01.898Z,5.62
2024-04-24T01:40:32.672Z,5.60
2024-04-24T01:43:03.304Z,5.60
2024-04-24T01:45:34.015Z,5.60
2024-04-24T01:48:05.020Z,5.60
2024-04-24T01:50:35.956Z,5.56
2024-04-24T01:53:07.073Z,5.50
2024-04-24T01:55:37.745Z,5.50
2024-04-24T01:58:08.868Z,5.50
2024-04-24T02:00:39.644Z,5.44
2024-04-24T02:03:10.404Z,5.44
2024-04-24T02:05:41.182Z,5.40
2024-04-24T02:08:11.835Z,5.40
2024-04-24T02:10:42.590Z,5.40
2024-04-24T02:13:13.239Z,5.40
2024-04-24T02:15:43.958Z,5.40
2024-04-24T02:18:14.800Z,5.30
2024-04-24T02:20:45.465Z,5.30
2024-04-24T02:23:21.618Z,5.30
2024-04-24T02:25:52.249Z,5.30
2024-04-24T02:28:23.000Z,5.22
2024-04-24T02:30:53.568Z,5.20
2024-04-24T02:33:24.301Z,5.20
2024-04-24T02:35:54.986Z,5.20
2024-04-24T02:38:25.700Z,5.18
2024-04-24T02:40:56.390Z,5.10
2024-04-24T02:43:27.048Z,5.10
2024-04-24T02:45:57.703Z,5.10
2024-04-24T02:48:28.358Z,5.10
2024-04-24T02:50:59.054Z,5.04
2024-04-24T02:53:29.659Z,5.00
2024-04-24T02:56:00.412Z,5.00
2024-04-24T02:58:31.315Z,5.00
2024-04-24T03:01:02.132Z,4.98
2024-04-24T03:03:32.779Z,4.90
2024-04-24T03:06:03.376Z,4.90
2024-04-24T03:08:34.003Z,4.90
2024-04-24T03:11:04.826Z,4.80
2024-04-24T03:13:35.573Z,4.80
2024-04-24T03:16:06.626Z,4.70
2024-04-24T03:18:37.437Z,4.70
2024-04-24T03:21:08.458Z,4.64
2024-04-24T03:23:40.247Z,4.60
2024-04-24T03:26:11.365Z,4.50
2024-04-24T03:28:42.791Z,4.40
2024-04-24T03:31:13.493Z,4.38
2024-04-24T03:33:44.199Z,4.30
2024-04-24T03:36:14.905Z,4.20
2024-04-24T03:38:46.150Z,4.20
2024-04-24T03:41:17.143Z,4.10
2024-04-24T03:43:47.961Z,4.02
2024-04-24T03:46:18.753Z,4.00
2024-04-24T03:48:49.578Z,3.94
2024-04-24T03:51:20.315Z,3.90
2024-04-24T03:53:50.965Z,3.84
2024-04-24T03:56:21.980Z,3.80
2024-04-24T03:58:52.829Z,3.80
2024-04-24T04:01:26.505Z,3.80
2024-04-24T04:03:59.311Z,3.80
2024-04-24T04:06:31.442Z,3.80
2024-04-24T04:09:02.218Z,3.80
2024-04-24T04:11:33.299Z,3.80
2024-04-24T04:14:04.202Z,3.70
2024-04-24T04:16:35.184Z,3.74
2024-04-24T04:19:06.070Z,3.80
2024-04-24T04:21:36.864Z,3.80
2024-04-24T04:24:08.362Z,3.80
2024-04-24T04:26:39.039Z,3.90
2024-04-24T04:29:09.938Z,3.98
2024-04-24T04:31:40.829Z,4.02
2024-04-24T04:34:11.508Z,4.10
2024-04-24T04:36:42.270Z,4.20
2024-04-24T04:39:13.681Z,4.30
2024-04-24T04:41:44.487Z,4.40
2024-04-24T04:44:15.224Z,4.50
2024-04-24T04:46:45.934Z,4.60
2024-04-24T04:49:16.561Z,4.70
2024-04-24T04:51:47.251Z,4.80
2024-04-24T04:54:17.818Z,4.90
2024-04-24T04:56:50.982Z,4.92
2024-04-24T04:59:22.368Z,5.00
2024-04-24T05:01:54.246Z,5.10
2024-04-24T05:04:26.085Z,5.20
2024-04-24T05:06:56.803Z,5.32
2024-04-24T05:09:27.666Z,5.44
2024-04-24T05:11:58.563Z,5.50
2024-04-24T05:14:29.426Z,5.60
2024-04-24T05:17:00.296Z,5.70
2024-04-24T05:19:31.116Z,5.72
2024-04-24T05:22:01.952Z,5.80
2024-04-24T05:24:32.634Z,5.80
2024-04-24T05:27:21.062Z,5.84
2024-04-24T05:29:51.782Z,5.90
2024-04-24T05:32:22.529Z,6.00
2024-04-24T05:34:53.422Z,6.10
2024-04-24T05:37:24.593Z,6.30
2024-04-24T05:39:55.338Z,6.40
2024-04-24T05:42:26.112Z,6.58
2024-04-24T05:44:56.923Z,6.70
2024-04-24T05:47:27.917Z,6.80
2024-04-24T05:49:58.698Z,6.90
2024-04-24T05:52:29.432Z,7.02
2024-04-24T05:55:00.064Z,7.10
2024-04-24T05:57:30.897Z,7.26
2024-04-24T06:00:01.622Z,7.40
2024-04-24T06:02:38.771Z,7.50
2024-04-24T06:05:10.185Z,7.64
2024-04-24T06:07:42.149Z,7.80
2024-04-24T06:10:13.023Z,8.00
2024-04-24T06:12:43.741Z,8.10
2024-04-24T06:15:14.478Z,8.30
2024-04-24T06:17:45.960Z,8.40
2024-04-24T06:20:17.959Z,8.56
2024-04-24T06:22:48.854Z,8.60
2024-04-24T06:25:19.675Z,8.70
2024-04-24T06:27:50.394Z,8.72
2024-04-24T06:30:21.180Z,8.80
2024-04-24T06:32:52.191Z,8.80
2024-04-24T06:35:26.744Z,8.80
2024-04-24T06:37:58.452Z,8.90
2024-04-24T06:40:29.240Z,9.04
2024-04-24T06:42:59.908Z,9.20
2024-04-24T06:45:31.764Z,9.36
2024-04-24T06:48:02.634Z,9.50
2024-04-24T06:50:34.453Z,9.64
2024-04-24T06:53:05.562Z,9.80
2024-04-24T06:55:37.785Z,9.96
2024-04-24T06:58:09.181Z,10.10
2024-04-24T07:00:39.972Z,10.20
2024-04-24T07:03:10.690Z,10.20
2024-04-24T07:05:41.458Z,10.30
2024-04-24T07:08:13.004Z,10.46
2024-04-24T07:10:43.819Z,10.60
2024-04-24T07:13:14.576Z,10.80
2024-04-24T07:15:45.459Z,11.00
2024-04-24T07:18:16.287Z,11.30
2024-04-24T07:20:47.127Z,11.56
2024-04-24T07:23:17.966Z,11.78
2024-04-24T07:25:48.630Z,11.90
2024-04-24T07:28:19.282Z,11.90
2024-04-24T07:30:50.246Z,11.90
2024-04-24T07:33:21.732Z,12.00
2024-04-24T07:35:52.957Z,12.00
2024-04-24T07:38:23.884Z,12.10
2024-04-24T07:40:55.032Z,12.10
2024-04-24T07:43:25.610Z,12.20
2024-04-24T07:45:56.211Z,12.40
2024-04-24T07:48:26.895Z,12.50
2024-04-24T07:50:57.687Z,12.60
2024-04-24T07:53:28.433Z,12.70
2024-04-24T07:55:59.259Z,12.70
2024-04-24T07:58:33.394Z,12.70
2024-04-24T08:01:04.180Z,12.80
2024-04-24T08:03:35.800Z,13.00
2024-04-24T08:06:08.827Z,13.10
2024-04-24T08:08:41.762Z,13.28
2024-04-24T08:11:12.692Z,13.50
2024-04-24T08:13:44.269Z,13.74
2024-04-24T08:16:15.034Z,14.00
2024-04-24T08:18:49.987Z,14.20
2024-04-24T08:21:20.907Z,14.40
2024-04-24T08:23:51.817Z,14.50
2024-04-24T08:26:22.735Z,14.70
2024-04-24T08:28:54.120Z,14.96
2024-04-24T08:31:24.839Z,15.20
2024-04-24T08:33:56.400Z,15.40
2024-04-24T08:36:27.085Z,15.50
2024-04-24T08:38:58.085Z,15.62
2024-04-24T08:41:34.890Z,15.90
2024-04-24T08:44:05.987Z,16.20
2024-04-24T08:46:36.955Z,16.40
2024-04-24T08:49:08.738Z,16.50
2024-04-24T08:51:41.011Z,16.60
2024-04-24T08:54:15.563Z,16.60
2024-04-24T08:56:48.856Z,16.66
2024-04-24T08:59:23.818Z,16.78
2024-04-24T09:02:00.136Z,17.00
2024-04-24T09:04:31.516Z,17.20
2024-04-24T09:07:02.703Z,17.40
2024-04-24T09:09:34.247Z,17.40
2024-04-24T09:12:07.982Z,17.50
2024-04-24T09:14:39.095Z,17.46
2024-04-24T09:17:10.061Z,17.40
2024-04-24T09:19:41.313Z,17.40
2024-04-24T09:22:12.145Z,17.40
2024-04-24T09:24:46.490Z,17.24
2024-04-24T09:27:20.519Z,17.00
2024-04-24T09:29:51.152Z,16.70
2024-04-24T09:32:22.287Z,16.50
2024-04-24T09:34:53.134Z,16.20
2024-04-24T09:37:25.188Z,15.82
2024-04-24T09:39:56.082Z,15.60
2024-04-24T09:42:26.899Z,15.50
2024-04-24T09:44:57.808Z,15.50
2024-04-24T09:47:29.629Z,15.40
2024-04-24T09:50:00.448Z,15.30
2024-04-24T09:52:31.137Z,15.10
2024-04-24T09:55:01.896Z,14.90
2024-04-24T09:57:35.319Z,14.70
2024-04-24T10:00:07.876Z,14.42
2024-04-24T10:02:48.356Z,14.20
2024-04-24T10:05:22.907Z,14.20
2024-04-24T10:07:57.455Z,14.00
2024-04-24T10:10:34.914Z,13.90
2024-04-24T10:13:07.578Z,13.70
2024-04-24T10:15:42.283Z,13.52
2024-04-24T10:18:13.157Z,13.50
2024-04-24T10:20:45.050Z,13.40
2024-04-24T10:23:17.838Z,13.50
2024-04-24T10:25:48.986Z,13.56
2024-04-24T10:28:21.834Z,13.60
2024-04-24T10:30:53.721Z,13.80
2024-04-24T10:33:25.761Z,14.00
2024-04-24T10:35:57.224Z,14.10
2024-04-24T10:38:32.619Z,14.20
2024-04-24T10:41:03.485Z,14.20
2024-04-24T10:43:35.075Z,14.20
2024-04-24T10:46:07.938Z,14.30
2024-04-24T10:48:54.459Z,14.30
2024-04-24T10:51:32.816Z,14.60
2024-04-24T10:54:13.289Z,14.80
2024-04-24T10:56:44.680Z,14.88
2024-04-24T10:59:15.854Z,14.90
2024-04-24T11:01:52.890Z,15.02
2024-04-24T11:04:26.726Z,15.20
2024-04-24T11:06:58.570Z,15.30
2024-04-24T11:09:30.112Z,15.30
2024-04-24T11:12:01.265Z,15.20
2024-04-24T11:14:41.585Z,15.20
2024-04-24T11:17:12.570Z,15.30
2024-04-24T11:19:43.281Z,15.50
2024-04-24T11:22:14.006Z,15.80
2024-04-24T11:24:45.087Z,16.00
2024-04-24T11:27:15.853Z,16.10
2024-04-24T11:29:46.465Z,16.22
2024-04-24T11:32:17.510Z,16.44
2024-04-24T11:34:48.902Z,16.64
2024-04-24T11:37:20.060Z,16.70
2024-04-24T11:39:50.636Z,16.80
2024-04-24T11:42:21.525Z,17.04
2024-04-24T11:44:52.310Z,17.00
2024-04-24T11:47:23.238Z,17.10
2024-04-24T11:49:55.038Z,17.10
2024-04-24T11:52:25.889Z,17.04
2024-04-24T11:54:56.644Z,17.64
2024-04-24T11:57:27.621Z,18.62
2024-04-24T12:00:01.997Z,19.40
2024-04-24T12:02:35.637Z,20.02
2024-04-24T12:05:07.728Z,20.64
2024-04-24T12:07:43.789Z,20.70
2024-04-24T12:10:23.898Z,21.16
2024-04-24T12:12:56.311Z,21.40
2024-04-24T12:15:26.928Z,21.36
2024-04-24T12:17:57.732Z,21.40
2024-04-24T12:20:28.484Z,21.16
2024-04-24T12:22:59.323Z,20.72
2024-04-24T12:25:29.997Z,20.30
2024-04-24T12:28:00.813Z,20.00
2024-04-24T12:30:31.698Z,19.86
2024-04-24T12:33:02.624Z,19.70
2024-04-24T12:35:33.434Z,19.60
2024-04-24T12:38:04.390Z,19.70
2024-04-24T12:40:37.570Z,19.80
2024-04-24T12:43:08.678Z,20.20
2024-04-24T12:45:39.267Z,20.44
2024-04-24T12:48:13.059Z,20.60
2024-04-24T12:50:43.874Z,20.70
2024-04-24T12:53:15.456Z,20.80
2024-04-24T12:55:46.429Z,20.74
2024-04-24T12:58:17.748Z,20.60
2024-04-24T13:00:48.508Z,20.20
2024-04-24T13:03:20.562Z,19.70
2024-04-24T13:05:51.275Z,19.16
2024-04-24T13:08:22.017Z,18.70
2024-04-24T13:10:52.767Z,18.30
2024-04-24T13:13:23.775Z,17.96
2024-04-24T13:15:54.731Z,17.78
2024-04-24T13:20:58.625Z,17.60
2024-04-24T13:23:29.324Z,17.30
2024-04-24T13:26:00.044Z,16.96
2024-04-24T13:28:33.801Z,16.56
2024-04-24T13:31:07.890Z,16.10
2024-04-24T13:33:38.936Z,15.82
2024-04-24T13:36:10.107Z,15.56
2024-04-24T13:38:40.877Z,15.30
2024-04-24T13:41:12.813Z,15.10
2024-04-24T13:43:44.245Z,15.00
2024-04-24T13:46:15.445Z,14.90
2024-04-24T13:48:46.331Z,14.80
2024-04-24T13:51:17.265Z,14.80
2024-04-24T13:53:47.960Z,15.00
2024-04-24T13:56:18.782Z,15.40
2024-04-24T13:58:49.727Z,15.84
2024-04-24T14:01:20.419Z,16.20
2024-04-24T14:03:51.334Z,16.20
2024-04-24T14:06:22.290Z,16.20
2024-04-24T14:08:54.119Z,16.10
2024-04-24T14:11:26.099Z,16.10
2024-04-24T14:13:57.001Z,16.10
2024-04-24T14:16:27.920Z,15.98
2024-04-24T14:18:58.618Z,15.90
2024-04-24T14:21:29.218Z,15.86
2024-04-24T14:23:59.951Z,15.52
2024-04-24T14:26:30.706Z,15.20
2024-04-24T14:29:01.536Z,15.00
2024-04-24T14:31:32.540Z,14.78
2024-04-24T14:34:03.161Z,14.50
2024-04-24T14:36:33.975Z,14.30
2024-04-24T14:39:04.687Z,14.10
2024-04-24T14:41:35.548Z,13.90
2024-04-24T14:44:06.558Z,13.90
2024-04-24T14:46:37.761Z,13.98
2024-04-24T14:49:08.460Z,14.00
2024-04-24T14:51:39.249Z,13.96
2024-04-24T14:54:09.980Z,13.90
2024-04-24T14:56:40.617Z,13.82
2024-04-24T14:59:11.441Z,13.78
2024-04-24T15:01:42.348Z,13.70
2024-04-24T15:04:13.122Z,13.70
2024-04-24T15:07:00.494Z,13.70
2024-04-24T15:09:34.520Z,13.60
2024-04-24T15:12:05.707Z,13.60
2024-04-24T15:14:36.551Z,13.50
2024-04-24T15:17:07.849Z,13.40
2024-04-24T15:19:40.891Z,13.38
2024-04-24T15:22:13.497Z,13.30
2024-04-24T15:24:45.461Z,13.20
2024-04-24T15:27:16.229Z,13.04
2024-04-24T15:29:46.860Z,12.90
2024-04-24T15:32:17.554Z,12.90
2024-04-24T15:34:48.344Z,12.80
2024-04-24T15:37:21.197Z,12.80
2024-04-24T15:39:51.898Z,12.80
2024-04-24T15:42:22.590Z,12.70
2024-04-24T15:44:53.379Z,12.60
2024-04-24T15:47:24.152Z,12.48
2024-04-24T15:49:55.049Z,12.32
2024-04-24T15:52:25.639Z,12.20
2024-04-24T15:54:56.327Z,12.16
2024-04-24T15:57:26.988Z,12.10
2024-04-24T15:59:57.726Z,12.00
2024-04-24T16:02:29.197Z,11.92
2024-04-24T16:05:00.312Z,11.90
2024-04-24T16:07:31.316Z,11.80
2024-04-24T16:10:02.395Z,11.80
2024-04-24T16:12:33.127Z,11.80
2024-04-24T16:15:03.794Z,11.82
2024-04-24T16:17:37.034Z,11.80
2024-04-24T16:20:14.089Z,11.80
2024-04-24T16:22:45.105Z,11.80
2024-04-24T16:25:15.988Z,11.80
2024-04-24T16:27:46.758Z,11.70
2024-04-24T16:30:17.848Z,11.70
2024-04-24T16:32:50.421Z,11.70
2024-04-24T16:35:21.265Z,11.70
2024-04-24T16:37:52.006Z,11.70
2024-04-24T16:40:22.577Z,11.80
2024-04-24T16:42:53.260Z,11.80
2024-04-24T16:45:23.844Z,11.80
2024-04-24T16:47:55.490Z,11.80
2024-04-24T16:50:26.445Z,11.80
2024-04-24T16:52:57.240Z,11.80
2024-04-24T16:55:28.169Z,11.74
2024-04-24T16:57:58.980Z,11.70
2024-04-24T17:00:29.631Z,11.60
2024-04-24T17:03:00.546Z,11.50
2024-04-24T17:05:31.504Z,11.30
2024-04-24T17:08:03.423Z,11.10
2024-04-24T17:10:34.416Z,11.00
2024-04-24T17:13:05.360Z,10.80
2024-04-24T17:15:36.353Z,10.60
2024-04-24T17:18:07.933Z,10.50
2024-04-24T17:20:40.945Z,10.40
2024-04-24T17:23:11.736Z,10.30
2024-04-24T17:25:45.467Z,10.18
2024-04-24T17:28:16.168Z,10.00
2024-04-24T17:30:46.864Z,9.92
2024-04-24T17:33:17.691Z,9.86
2024-04-24T17:35:50.460Z,9.80
2024-04-24T17:38:21.575Z,9.70
2024-04-24T17:40:52.399Z,9.60
2024-04-24T17:43:26.524Z,9.60
2024-04-24T17:45:57.578Z,9.46
2024-04-24T17:48:29.672Z,9.34
2024-04-24T17:51:01.271Z,9.28
2024-04-24T17:53:32.129Z,9.20
2024-04-24T17:56:03.262Z,9.10
2024-04-24T17:58:33.868Z,9.10
2024-04-24T18:01:04.981Z,9.00
2024-04-24T18:03:35.866Z,9.00
2024-04-24T18:06:07.134Z,8.90
2024-04-24T18:08:37.890Z,8.80
2024-04-24T18:11:08.969Z,8.70
2024-04-24T18:13:39.815Z,8.70
2024-04-24T18:16:10.752Z,8.60
2024-04-24T18:18:41.564Z,8.50
2024-04-24T18:21:12.472Z,8.44
2024-04-24T18:23:43.031Z,8.40
2024-04-24T18:26:13.817Z,8.40
2024-04-24T18:28:44.671Z,8.30
2024-04-24T18:31:15.552Z,8.30
2024-04-24T18:33:46.424Z,8.30
2024-04-24T18:36:17.341Z,8.20
2024-04-24T18:38:48.187Z,8.20
2024-04-24T18:41:19.983Z,8.20
2024-04-24T18:43:50.690Z,8.10
2024-04-24T18:46:21.412Z,8.10
2024-04-24T18:48:52.404Z,8.10
2024-04-24T18:51:23.374Z,8.10
2024-04-24T18:53:54.532Z,8.10
2024-04-24T18:56:25.539Z,8.00
2024-04-24T18:58:56.364Z,8.00
2024-04-24T19:01:27.253Z,7.98
2024-04-24T19:03:58.030Z,7.90
2024-04-24T19:06:33.405Z,7.90
2024-04-24T19:09:04.797Z,7.90
2024-04-24T19:11:35.562Z,7.90
2024-04-24T19:14:06.587Z,7.88
2024-04-24T19:16:37.835Z,7.80
2024-04-24T19:19:08.720Z,7.78
2024-04-24T19:21:39.568Z,7.70
2024-04-24T19:24:10.877Z,7.70
2024-04-24T19:26:41.757Z,7.60
2024-04-24T19:29:12.600Z,7.60
2024-04-24T19:31:43.978Z,7.50
2024-04-24T19:34:14.711Z,7.50
2024-04-24T19:36:45.457Z,7.40
2024-04-24T19:39:16.308Z,7.40
2024-04-24T19:41:47.894Z,7.40
2024-04-24T19:44:18.653Z,7.36
2024-04-24T19:46:49.785Z,7.38
2024-04-24T19:49:20.795Z,7.30
2024-04-24T19:51:51.386Z,7.30
2024-04-24T19:54:22.163Z,7.30
2024-04-24T19:56:53.856Z,7.30
2024-04-24T19:59:24.566Z,7.30
2024-04-24T20:01:56.210Z,7.30
2024-04-24T20:04:27.258Z,7.30
2024-04-24T20:06:58.054Z,7.30
2024-04-24T20:09:29.055Z,7.20
2024-04-24T20:11:59.885Z,7.20
2024-04-24T20:14:30.707Z,7.20
2024-04-24T20:17:01.675Z,7.10
2024-04-24T20:19:34.183Z,7.10
2024-04-24T20:22:08.193Z,7.10
2024-04-24T20:24:38.927Z,7.10
2024-04-24T20:27:13.878Z,7.10
2024-04-24T20:29:44.612Z,7.10
2024-04-24T20:32:16.341Z,7.00
2024-04-24T20:34:47.194Z,7.00
2024-04-24T20:37:17.961Z,6.90
2024-04-24T20:39:48.963Z,6.90
2024-04-24T20:42:19.695Z,6.80
2024-04-24T20:44:50.547Z,6.80
2024-04-24T20:47:21.626Z,6.70
2024-04-24T20:49:52.386Z,6.70
2024-04-24T20:52:23.077Z,6.68
2024-04-24T20:54:53.904Z,6.60
2024-04-24T20:57:24.726Z,6.60
2024-04-24T20:59:57.834Z,6.60
2024-04-24T21:02:28.999Z,6.60
2024-04-24T21:04:59.865Z,6.60
2024-04-24T21:07:30.656Z,6.60
2024-04-24T21:10:01.429Z,6.60
2024-04-24T21:12:32.334Z,6.60
2024-04-24T21:15:04.229Z,6.60
2024-04-24T21:17:34.969Z,6.50
2024-04-24T21:20:06.297Z,6.50
2024-04-24T21:22:37.140Z,6.40
2024-04-24T21:25:08.820Z,6.38
2024-04-24T21:27:39.701Z,6.30
2024-04-24T21:30:11.876Z,6.28
2024-04-24T21:32:42.714Z,6.20
2024-04-24T21:35:13.520Z,6.14
2024-04-24T21:37:44.350Z,6.10
2024-04-24T21:40:15.249Z,6.06
2024-04-24T21:42:45.999Z,6.00
2024-04-24T21:45:16.939Z,6.10
2024-04-24T21:47:47.708Z,6.10
2024-04-24T21:50:18.544Z,6.04
2024-04-24T21:52:49.435Z,6.02
2024-04-24T21:55:20.078Z,6.00
2024-04-24T21:57:50.708Z,6.00
2024-04-24T22:00:21.560Z,6.00
2024-04-24T22:02:54.292Z,5.92
2024-04-24T22:05:24.992Z,5.90
2024-04-24T22:07:55.702Z,5.90
2024-04-24T22:10:26.437Z,5.80
2024-04-24T22:13:01.277Z,5.80
2024-04-24T22:15:34.686Z,5.80
2024-04-24T22:18:13.565Z,5.70
2024-04-24T22:20:44.527Z,5.70
2024-04-24T22:23:15.411Z,5.60
2024-04-24T22:25:46.152Z,5.60
2024-04-24T22:28:16.783Z,5.56
2024-04-24T22:30:47.897Z,5.50
2024-04-24T22:33:18.610Z,5.50
2024-04-24T22:35:49.303Z,5.50
2024-04-24T22:38:20.081Z,5.48
2024-04-24T22:40:50.720Z,5.40
2024-04-24T22:43:22.182Z,5.40
2024-04-24T22:45:52.939Z,5.40
2024-04-24T22:48:23.740Z,5.30
2024-04-24T22:50:54.582Z,5.30
2024-04-24T22:53:25.469Z,5.30
2024-04-24T22:55:56.087Z,5.30
2024-04-24T22:58:26.775Z,5.26
2024-04-24T23:00:57.685Z,5.20
2024-04-24T23:03:28.408Z,5.20
2024-04-24T23:05:59.263Z,5.20
2024-04-24T23:08:30.114Z,5.20
2024-04-24T23:11:00.782Z,5.20
2024-04-24T23:13:31.511Z,5.10
2024-04-24T23:16:02.472Z,5.10
2024-04-24T23:18:36.331Z,5.10
2024-04-24T23:21:07.403Z,5.10
2024-04-24T23:23:38.190Z,5.10
2024-04-24T23:26:08.873Z,5.10
2024-04-24T23:28:39.794Z,5.10
2024-04-24T23:31:10.588Z,5.16
2024-04-24T23:33:41.268Z,5.20
2024-04-24T23:36:12.197Z,5.20
2024-04-24T23:38:42.944Z,5.30
2024-04-24T23:41:16.452Z,5.32
2024-04-24T23:43:47.691Z,5.38
2024-04-24T23:46:20.259Z,5.40
2024-04-24T23:48:52.468Z,5.40
2024-04-24T23:51:23.091Z,5.44
2024-04-24T23:53:54.549Z,5.50
2024-04-24T23:56:25.999Z,5.50
2024-04-24T23:58:56.676Z,5.60
